sensor_id;sensor_type;location;lat;lon;timestamp;temperature;humidity
56162;DHT22;42045;52.986;6.014;2023-09-18T00:01:37;15.90;99.90
56162;DHT22;42045;52.986;6.014;2023-09-18T00:04:05;16.00;99.90
56162;DHT22;42045;52.986;6.014;2023-09-18T00:06:32;16.00;99.90
56162;DHT22;42045;52.986;6.014;2023-09-18T00:08:58;16.00;99.90
56162;DHT22;42045;52.986;6.014;2023-09-18T00:11:24;16.00;99.90
56162;DHT22;42045;52.986;6.014;2023-09-18T00:13:49;16.00;99.90
56162;DHT22;42045;52.986;6.014;2023-09-18T00:16:15;16.10;99.90
56162;DHT22;42045;52.986;6.014;2023-09-18T00:18:40;16.10;99.90
56162;DHT22;42045;52.986;6.014;2023-09-18T00:21:08;16.10;99.90
56162;DHT22;42045;52.986;6.014;2023-09-18T00:23:36;16.10;99.90
56162;DHT22;42045;52.986;6.014;2023-09-18T00:26:01;16.10;99.90
56162;DHT22;42045;52.986;6.014;2023-09-18T00:28:27;16.10;99.90
56162;DHT22;42045;52.986;6.014;2023-09-18T00:30:53;16.10;99.90
56162;DHT22;42045;52.986;6.014;2023-09-18T00:33:19;16.10;99.90
56162;DHT22;42045;52.986;6.014;2023-09-18T00:35:46;16.20;99.90
56162;DHT22;42045;52.986;6.014;2023-09-18T00:38:12;16.10;99.90
56162;DHT22;42045;52.986;6.014;2023-09-18T00:40:37;16.10;99.90
56162;DHT22;42045;52.986;6.014;2023-09-18T00:43:03;16.20;99.90
56162;DHT22;42045;52.986;6.014;2023-09-18T00:45:29;16.10;99.90
56162;DHT22;42045;52.986;6.014;2023-09-18T00:47:55;16.20;99.90
56162;DHT22;42045;52.986;6.014;2023-09-18T00:50:21;16.10;99.90
56162;DHT22;42045;52.986;6.014;2023-09-18T00:52:47;16.20;99.90
56162;DHT22;42045;52.986;6.014;2023-09-18T00:55:14;16.10;99.90
56162;DHT22;42045;52.986;6.014;2023-09-18T00:57:41;16.20;99.90
56162;DHT22;42045;52.986;6.014;2023-09-18T01:00:08;16.10;99.90
56162;DHT22;42045;52.986;6.014;2023-09-18T01:02:34;16.10;99.90
56162;DHT22;42045;52.986;6.014;2023-09-18T01:05:00;16.10;99.90
56162;DHT22;42045;52.986;6.014;2023-09-18T01:07:26;16.10;99.90
56162;DHT22;42045;52.986;6.014;2023-09-18T01:09:53;16.00;99.90
56162;DHT22;42045;52.986;6.014;2023-09-18T01:12:32;16.10;99.90
56162;DHT22;42045;52.986;6.014;2023-09-18T01:15:13;16.10;99.90
56162;DHT22;42045;52.986;6.014;2023-09-18T01:17:41;16.00;99.90
56162;DHT22;42045;52.986;6.014;2023-09-18T01:20:11;15.90;99.90
56162;DHT22;42045;52.986;6.014;2023-09-18T01:22:37;16.00;99.90
56162;DHT22;42045;52.986;6.014;2023-09-18T01:25:03;15.90;99.90
56162;DHT22;42045;52.986;6.014;2023-09-18T01:27:29;15.90;99.90
56162;DHT22;42045;52.986;6.014;2023-09-18T01:29:54;15.80;99.90
56162;DHT22;42045;52.986;6.014;2023-09-18T01:32:21;15.70;99.90
56162;DHT22;42045;52.986;6.014;2023-09-18T01:34:53;15.70;99.90
56162;DHT22;42045;52.986;6.014;2023-09-18T01:37:21;15.70;99.90
56162;DHT22;42045;52.986;6.014;2023-09-18T01:39:49;15.60;99.90
56162;DHT22;42045;52.986;6.014;2023-09-18T01:42:15;15.70;99.90
56162;DHT22;42045;52.986;6.014;2023-09-18T01:44:42;15.60;99.90
56162;DHT22;42045;52.986;6.014;2023-09-18T01:47:09;15.60;99.90
56162;DHT22;42045;52.986;6.014;2023-09-18T01:49:38;15.50;99.90
56162;DHT22;42045;52.986;6.014;2023-09-18T01:52:04;15.70;99.90
56162;DHT22;42045;52.986;6.014;2023-09-18T01:54:31;15.60;99.90
56162;DHT22;42045;52.986;6.014;2023-09-18T01:56:56;15.80;99.90
56162;DHT22;42045;52.986;6.014;2023-09-18T01:59:23;15.80;99.90
56162;DHT22;42045;52.986;6.014;2023-09-18T02:01:49;15.90;99.90
56162;DHT22;42045;52.986;6.014;2023-09-18T02:04:16;16.00;99.90
56162;DHT22;42045;52.986;6.014;2023-09-18T02:06:42;16.00;99.90
56162;DHT22;42045;52.986;6.014;2023-09-18T02:09:08;16.10;99.90
56162;DHT22;42045;52.986;6.014;2023-09-18T02:11:40;16.20;99.90
56162;DHT22;42045;52.986;6.014;2023-09-18T02:14:06;16.20;99.90
56162;DHT22;42045;52.986;6.014;2023-09-18T02:16:39;16.20;99.90
56162;DHT22;42045;52.986;6.014;2023-09-18T02:19:10;16.30;99.90
56162;DHT22;42045;52.986;6.014;2023-09-18T02:21:36;16.30;99.90
56162;DHT22;42045;52.986;6.014;2023-09-18T02:24:01;16.30;99.90
56162;DHT22;42045;52.986;6.014;2023-09-18T02:26:27;16.30;99.90
56162;DHT22;42045;52.986;6.014;2023-09-18T02:28:54;16.30;99.90
56162;DHT22;42045;52.986;6.014;2023-09-18T02:31:20;16.40;99.90
56162;DHT22;42045;52.986;6.014;2023-09-18T02:33:46;16.30;99.90
56162;DHT22;42045;52.986;6.014;2023-09-18T02:36:13;16.40;99.90
56162;DHT22;42045;52.986;6.014;2023-09-18T02:38:39;16.40;99.90
56162;DHT22;42045;52.986;6.014;2023-09-18T02:41:04;16.40;99.90
56162;DHT22;42045;52.986;6.014;2023-09-18T02:43:30;16.50;99.90
56162;DHT22;42045;52.986;6.014;2023-09-18T02:45:56;16.50;99.90
56162;DHT22;42045;52.986;6.014;2023-09-18T02:48:21;16.60;99.90
56162;DHT22;42045;52.986;6.014;2023-09-18T02:50:47;16.60;99.90
56162;DHT22;42045;52.986;6.014;2023-09-18T02:53:21;16.70;99.90
56162;DHT22;42045;52.986;6.014;2023-09-18T02:55:48;16.70;99.90
56162;DHT22;42045;52.986;6.014;2023-09-18T02:58:13;16.70;99.90
56162;DHT22;42045;52.986;6.014;2023-09-18T03:00:43;16.70;99.90
56162;DHT22;42045;52.986;6.014;2023-09-18T03:03:10;16.70;99.90
56162;DHT22;42045;52.986;6.014;2023-09-18T03:05:36;16.70;99.90
56162;DHT22;42045;52.986;6.014;2023-09-18T03:08:02;16.70;99.90
56162;DHT22;42045;52.986;6.014;2023-09-18T03:10:32;16.80;99.90
56162;DHT22;42045;52.986;6.014;2023-09-18T03:12:57;16.80;99.90
56162;DHT22;42045;52.986;6.014;2023-09-18T03:15:23;16.80;99.90
56162;DHT22;42045;52.986;6.014;2023-09-18T03:17:50;16.70;99.90
56162;DHT22;42045;52.986;6.014;2023-09-18T03:20:16;16.80;99.90
56162;DHT22;42045;52.986;6.014;2023-09-18T03:22:41;16.80;99.90
56162;DHT22;42045;52.986;6.014;2023-09-18T03:25:07;16.80;99.90
56162;DHT22;42045;52.986;6.014;2023-09-18T03:27:33;16.80;99.90
56162;DHT22;42045;52.986;6.014;2023-09-18T03:29:59;16.80;99.90
56162;DHT22;42045;52.986;6.014;2023-09-18T03:32:24;16.90;99.90
56162;DHT22;42045;52.986;6.014;2023-09-18T03:34:51;16.90;99.90
56162;DHT22;42045;52.986;6.014;2023-09-18T03:37:17;16.90;99.90
56162;DHT22;42045;52.986;6.014;2023-09-18T03:39:42;16.90;99.90
56162;DHT22;42045;52.986;6.014;2023-09-18T03:42:08;16.90;99.90
56162;DHT22;42045;52.986;6.014;2023-09-18T03:44:33;16.90;99.90
56162;DHT22;42045;52.986;6.014;2023-09-18T03:46:59;16.90;99.90
56162;DHT22;42045;52.986;6.014;2023-09-18T03:49:24;17.00;99.90
56162;DHT22;42045;52.986;6.014;2023-09-18T03:51:50;16.90;99.90
56162;DHT22;42045;52.986;6.014;2023-09-18T03:54:16;17.10;99.90
56162;DHT22;42045;52.986;6.014;2023-09-18T03:56:41;17.10;99.90
56162;DHT22;42045;52.986;6.014;2023-09-18T03:59:07;17.00;99.90
56162;DHT22;42045;52.986;6.014;2023-09-18T04:01:32;17.10;99.90
56162;DHT22;42045;52.986;6.014;2023-09-18T04:03:58;17.10;99.90
56162;DHT22;42045;52.986;6.014;2023-09-18T04:06:23;17.10;99.90
56162;DHT22;42045;52.986;6.014;2023-09-18T04:08:50;17.10;99.90
56162;DHT22;42045;52.986;6.014;2023-09-18T04:11:16;17.20;99.90
56162;DHT22;42045;52.986;6.014;2023-09-18T04:13:42;17.20;99.90
56162;DHT22;42045;52.986;6.014;2023-09-18T04:16:08;17.20;99.90
56162;DHT22;42045;52.986;6.014;2023-09-18T04:18:33;17.20;99.90
56162;DHT22;42045;52.986;6.014;2023-09-18T04:20:59;17.30;99.90
56162;DHT22;42045;52.986;6.014;2023-09-18T04:23:26;17.20;99.90
56162;DHT22;42045;52.986;6.014;2023-09-18T04:25:53;17.20;99.90
56162;DHT22;42045;52.986;6.014;2023-09-18T04:28:20;17.30;99.90
56162;DHT22;42045;52.986;6.014;2023-09-18T04:30:46;17.20;99.90
56162;DHT22;42045;52.986;6.014;2023-09-18T04:33:14;17.30;99.90
56162;DHT22;42045;52.986;6.014;2023-09-18T04:35:39;17.20;99.90
56162;DHT22;42045;52.986;6.014;2023-09-18T04:38:08;17.20;99.90
56162;DHT22;42045;52.986;6.014;2023-09-18T04:40:36;17.20;99.90
56162;DHT22;42045;52.986;6.014;2023-09-18T04:43:02;17.20;99.90
56162;DHT22;42045;52.986;6.014;2023-09-18T04:45:30;17.10;99.90
56162;DHT22;42045;52.986;6.014;2023-09-18T04:47:56;17.10;99.90
56162;DHT22;42045;52.986;6.014;2023-09-18T04:50:22;17.10;99.90
56162;DHT22;42045;52.986;6.014;2023-09-18T04:52:48;17.20;99.90
56162;DHT22;42045;52.986;6.014;2023-09-18T04:55:16;17.10;99.90
56162;DHT22;42045;52.986;6.014;2023-09-18T04:57:42;17.20;99.90
56162;DHT22;42045;52.986;6.014;2023-09-18T05:00:08;17.20;99.90
56162;DHT22;42045;52.986;6.014;2023-09-18T05:02:34;17.10;99.90
56162;DHT22;42045;52.986;6.014;2023-09-18T05:05:00;17.20;99.90
56162;DHT22;42045;52.986;6.014;2023-09-18T05:07:26;17.10;99.90
56162;DHT22;42045;52.986;6.014;2023-09-18T05:09:52;17.20;99.90
56162;DHT22;42045;52.986;6.014;2023-09-18T05:12:18;17.10;99.90
56162;DHT22;42045;52.986;6.014;2023-09-18T05:14:44;17.20;99.90
56162;DHT22;42045;52.986;6.014;2023-09-18T05:17:17;17.10;99.90
56162;DHT22;42045;52.986;6.014;2023-09-18T05:19:43;17.20;99.90
56162;DHT22;42045;52.986;6.014;2023-09-18T05:22:09;17.20;99.90
56162;DHT22;42045;52.986;6.014;2023-09-18T05:24:40;17.10;99.90
56162;DHT22;42045;52.986;6.014;2023-09-18T05:27:06;17.10;99.90
56162;DHT22;42045;52.986;6.014;2023-09-18T05:29:33;17.10;99.90
56162;DHT22;42045;52.986;6.014;2023-09-18T05:31:58;17.20;99.90
56162;DHT22;42045;52.986;6.014;2023-09-18T05:34:24;17.20;99.90
56162;DHT22;42045;52.986;6.014;2023-09-18T05:36:50;17.20;99.90
56162;DHT22;42045;52.986;6.014;2023-09-18T05:39:15;17.30;99.90
56162;DHT22;42045;52.986;6.014;2023-09-18T05:41:42;17.30;99.90
56162;DHT22;42045;52.986;6.014;2023-09-18T05:44:08;17.40;99.90
56162;DHT22;42045;52.986;6.014;2023-09-18T05:46:35;17.50;99.90
56162;DHT22;42045;52.986;6.014;2023-09-18T05:49:02;17.50;99.90
56162;DHT22;42045;52.986;6.014;2023-09-18T05:51:27;17.50;99.90
56162;DHT22;42045;52.986;6.014;2023-09-18T05:53:53;17.50;99.90
56162;DHT22;42045;52.986;6.014;2023-09-18T05:56:19;17.60;99.90
56162;DHT22;42045;52.986;6.014;2023-09-18T05:58:44;17.70;99.90
56162;DHT22;42045;52.986;6.014;2023-09-18T06:01:10;17.70;99.90
56162;DHT22;42045;52.986;6.014;2023-09-18T06:03:36;17.80;99.90
56162;DHT22;42045;52.986;6.014;2023-09-18T06:06:02;17.70;99.90
56162;DHT22;42045;52.986;6.014;2023-09-18T06:08:29;17.80;99.90
56162;DHT22;42045;52.986;6.014;2023-09-18T06:10:56;17.80;99.90
56162;DHT22;42045;52.986;6.014;2023-09-18T06:13:23;17.70;99.90
56162;DHT22;42045;52.986;6.014;2023-09-18T06:15:49;17.80;99.90
56162;DHT22;42045;52.986;6.014;2023-09-18T06:18:16;17.80;99.90
56162;DHT22;42045;52.986;6.014;2023-09-18T06:20:41;17.90;99.90
56162;DHT22;42045;52.986;6.014;2023-09-18T06:23:09;17.90;99.90
56162;DHT22;42045;52.986;6.014;2023-09-18T06:25:34;17.90;99.90
56162;DHT22;42045;52.986;6.014;2023-09-18T06:28:00;17.90;99.90
56162;DHT22;42045;52.986;6.014;2023-09-18T06:30:29;17.80;99.90
56162;DHT22;42045;52.986;6.014;2023-09-18T06:32:56;17.80;99.90
56162;DHT22;42045;52.986;6.014;2023-09-18T06:35:22;17.90;99.90
56162;DHT22;42045;52.986;6.014;2023-09-18T06:37:47;17.90;99.90
56162;DHT22;42045;52.986;6.014;2023-09-18T06:40:16;17.90;99.90
56162;DHT22;42045;52.986;6.014;2023-09-18T06:42:42;17.80;99.90
56162;DHT22;42045;52.986;6.014;2023-09-18T06:45:08;17.90;99.90
56162;DHT22;42045;52.986;6.014;2023-09-18T06:47:34;17.90;99.90
56162;DHT22;42045;52.986;6.014;2023-09-18T06:50:00;17.90;99.90
56162;DHT22;42045;52.986;6.014;2023-09-18T06:52:26;17.80;99.90
56162;DHT22;42045;52.986;6.014;2023-09-18T06:54:53;17.80;99.90
56162;DHT22;42045;52.986;6.014;2023-09-18T06:57:19;17.80;99.90
56162;DHT22;42045;52.986;6.014;2023-09-18T06:59:46;17.70;99.90
56162;DHT22;42045;52.986;6.014;2023-09-18T07:02:12;17.70;99.90
56162;DHT22;42045;52.986;6.014;2023-09-18T07:04:40;17.80;99.90
56162;DHT22;42045;52.986;6.014;2023-09-18T07:07:13;17.80;99.90
56162;DHT22;42045;52.986;6.014;2023-09-18T07:09:43;17.70;99.90
56162;DHT22;42045;52.986;6.014;2023-09-18T07:12:09;17.70;99.90
56162;DHT22;42045;52.986;6.014;2023-09-18T07:14:35;17.80;99.90
56162;DHT22;42045;52.986;6.014;2023-09-18T07:17:01;17.80;99.90
56162;DHT22;42045;52.986;6.014;2023-09-18T07:19:27;17.80;99.90
56162;DHT22;42045;52.986;6.014;2023-09-18T07:21:53;17.80;99.90
56162;DHT22;42045;52.986;6.014;2023-09-18T07:24:19;17.80;99.90
56162;DHT22;42045;52.986;6.014;2023-09-18T07:26:46;17.80;99.90
56162;DHT22;42045;52.986;6.014;2023-09-18T07:29:13;17.90;99.90
56162;DHT22;42045;52.986;6.014;2023-09-18T07:31:41;17.70;99.90
56162;DHT22;42045;52.986;6.014;2023-09-18T07:34:06;17.70;99.90
56162;DHT22;42045;52.986;6.014;2023-09-18T07:36:32;17.80;99.90
56162;DHT22;42045;52.986;6.014;2023-09-18T07:38:58;17.80;99.90
56162;DHT22;42045;52.986;6.014;2023-09-18T07:41:24;17.70;99.90
56162;DHT22;42045;52.986;6.014;2023-09-18T07:43:50;17.70;99.90
56162;DHT22;42045;52.986;6.014;2023-09-18T07:46:16;17.90;99.90
56162;DHT22;42045;52.986;6.014;2023-09-18T07:48:42;17.90;99.90
56162;DHT22;42045;52.986;6.014;2023-09-18T07:51:11;17.80;99.90
56162;DHT22;42045;52.986;6.014;2023-09-18T07:53:37;17.80;99.90
56162;DHT22;42045;52.986;6.014;2023-09-18T07:56:03;17.90;99.90
56162;DHT22;42045;52.986;6.014;2023-09-18T07:58:30;17.80;99.90
56162;DHT22;42045;52.986;6.014;2023-09-18T08:00:56;17.80;99.90
56162;DHT22;42045;52.986;6.014;2023-09-18T08:03:23;18.00;99.90
56162;DHT22;42045;52.986;6.014;2023-09-18T08:05:51;17.90;99.90
56162;DHT22;42045;52.986;6.014;2023-09-18T08:08:18;18.00;99.90
56162;DHT22;42045;52.986;6.014;2023-09-18T08:10:46;18.00;99.90
56162;DHT22;42045;52.986;6.014;2023-09-18T08:13:12;18.00;99.90
56162;DHT22;42045;52.986;6.014;2023-09-18T08:15:38;17.90;99.90
56162;DHT22;42045;52.986;6.014;2023-09-18T08:18:04;18.10;99.90
56162;DHT22;42045;52.986;6.014;2023-09-18T08:20:30;18.00;99.90
56162;DHT22;42045;52.986;6.014;2023-09-18T08:22:55;18.20;99.90
56162;DHT22;42045;52.986;6.014;2023-09-18T08:25:21;18.10;99.90
56162;DHT22;42045;52.986;6.014;2023-09-18T08:27:47;18.30;99.90
56162;DHT22;42045;52.986;6.014;2023-09-18T08:30:14;18.20;99.90
56162;DHT22;42045;52.986;6.014;2023-09-18T08:32:41;18.50;99.90
56162;DHT22;42045;52.986;6.014;2023-09-18T08:35:07;18.60;99.90
56162;DHT22;42045;52.986;6.014;2023-09-18T08:37:33;18.60;99.90
56162;DHT22;42045;52.986;6.014;2023-09-18T08:39:58;18.60;99.90
56162;DHT22;42045;52.986;6.014;2023-09-18T08:42:30;18.50;99.90
56162;DHT22;42045;52.986;6.014;2023-09-18T08:44:59;18.60;99.90
56162;DHT22;42045;52.986;6.014;2023-09-18T08:47:27;18.70;99.90
56162;DHT22;42045;52.986;6.014;2023-09-18T08:49:54;18.70;99.90
56162;DHT22;42045;52.986;6.014;2023-09-18T08:52:21;18.80;99.90
56162;DHT22;42045;52.986;6.014;2023-09-18T08:54:47;18.70;99.90
56162;DHT22;42045;52.986;6.014;2023-09-18T08:57:14;18.70;99.90
56162;DHT22;42045;52.986;6.014;2023-09-18T08:59:40;18.70;99.90
56162;DHT22;42045;52.986;6.014;2023-09-18T09:02:07;18.70;99.90
56162;DHT22;42045;52.986;6.014;2023-09-18T09:04:37;18.60;99.90
56162;DHT22;42045;52.986;6.014;2023-09-18T09:07:03;18.60;99.90
56162;DHT22;42045;52.986;6.014;2023-09-18T09:09:29;18.60;99.90
56162;DHT22;42045;52.986;6.014;2023-09-18T09:11:56;18.60;99.90
56162;DHT22;42045;52.986;6.014;2023-09-18T09:14:22;18.90;99.90
56162;DHT22;42045;52.986;6.014;2023-09-18T09:16:54;18.90;99.90
56162;DHT22;42045;52.986;6.014;2023-09-18T09:19:29;19.00;99.90
56162;DHT22;42045;52.986;6.014;2023-09-18T09:21:56;19.00;99.90
56162;DHT22;42045;52.986;6.014;2023-09-18T09:24:43;19.00;99.90
56162;DHT22;42045;52.986;6.014;2023-09-18T09:27:09;19.20;99.90
56162;DHT22;42045;52.986;6.014;2023-09-18T09:29:36;19.40;99.90
56162;DHT22;42045;52.986;6.014;2023-09-18T09:32:16;19.70;99.90
56162;DHT22;42045;52.986;6.014;2023-09-18T09:34:43;19.70;99.90
56162;DHT22;42045;52.986;6.014;2023-09-18T09:37:09;19.80;99.90
56162;DHT22;42045;52.986;6.014;2023-09-18T09:39:56;19.90;99.90
56162;DHT22;42045;52.986;6.014;2023-09-18T09:42:22;19.80;99.90
56162;DHT22;42045;52.986;6.014;2023-09-18T09:45:04;19.80;99.90
56162;DHT22;42045;52.986;6.014;2023-09-18T09:47:36;19.90;99.90
56162;DHT22;42045;52.986;6.014;2023-09-18T09:50:13;19.90;99.90
56162;DHT22;42045;52.986;6.014;2023-09-18T09:52:46;20.00;99.90
56162;DHT22;42045;52.986;6.014;2023-09-18T09:55:34;20.10;99.90
56162;DHT22;42045;52.986;6.014;2023-09-18T09:58:01;20.10;99.90
56162;DHT22;42045;52.986;6.014;2023-09-18T10:00:54;20.20;99.90
56162;DHT22;42045;52.986;6.014;2023-09-18T10:03:21;20.30;99.90
56162;DHT22;42045;52.986;6.014;2023-09-18T10:05:50;20.50;99.90
56162;DHT22;42045;52.986;6.014;2023-09-18T10:08:22;20.70;99.90
56162;DHT22;42045;52.986;6.014;2023-09-18T10:10:51;20.80;99.90
56162;DHT22;42045;52.986;6.014;2023-09-18T10:13:23;21.00;99.90
56162;DHT22;42045;52.986;6.014;2023-09-18T10:15:52;21.10;99.90
56162;DHT22;42045;52.986;6.014;2023-09-18T10:18:34;21.10;99.90
56162;DHT22;42045;52.986;6.014;2023-09-18T10:21:33;21.20;99.90
56162;DHT22;42045;52.986;6.014;2023-09-18T10:24:23;21.10;99.90
56162;DHT22;42045;52.986;6.014;2023-09-18T10:26:56;21.00;99.90
56162;DHT22;42045;52.986;6.014;2023-09-18T10:29:23;20.80;99.90
56162;DHT22;42045;52.986;6.014;2023-09-18T10:31:52;20.60;99.90
56162;DHT22;42045;52.986;6.014;2023-09-18T10:34:20;20.70;99.90
56162;DHT22;42045;52.986;6.014;2023-09-18T10:36:53;20.60;99.90
56162;DHT22;42045;52.986;6.014;2023-09-18T10:39:20;20.60;99.90
56162;DHT22;42045;52.986;6.014;2023-09-18T10:41:53;20.50;99.90
56162;DHT22;42045;52.986;6.014;2023-09-18T10:44:19;20.50;99.90
56162;DHT22;42045;52.986;6.014;2023-09-18T10:46:49;20.50;99.90
56162;DHT22;42045;52.986;6.014;2023-09-18T10:49:16;20.50;99.90
56162;DHT22;42045;52.986;6.014;2023-09-18T10:51:42;20.50;99.90
56162;DHT22;42045;52.986;6.014;2023-09-18T10:54:09;20.60;99.90
56162;DHT22;42045;52.986;6.014;2023-09-18T10:56:35;20.70;99.90
56162;DHT22;42045;52.986;6.014;2023-09-18T10:59:02;20.80;99.90
56162;DHT22;42045;52.986;6.014;2023-09-18T11:01:32;20.80;99.90
56162;DHT22;42045;52.986;6.014;2023-09-18T11:04:05;20.80;99.90
56162;DHT22;42045;52.986;6.014;2023-09-18T11:09:21;21.10;99.90
56162;DHT22;42045;52.986;6.014;2023-09-18T11:12:14;21.20;99.90
56162;DHT22;42045;52.986;6.014;2023-09-18T11:14:57;21.40;99.90
56162;DHT22;42045;52.986;6.014;2023-09-18T11:17:39;21.40;99.90
56162;DHT22;42045;52.986;6.014;2023-09-18T11:20:10;21.50;99.90
56162;DHT22;42045;52.986;6.014;2023-09-18T11:22:55;21.60;99.90
56162;DHT22;42045;52.986;6.014;2023-09-18T11:25:49;21.70;99.90
56162;DHT22;42045;52.986;6.014;2023-09-18T11:28:23;21.50;99.90
56162;DHT22;42045;52.986;6.014;2023-09-18T11:30:50;21.40;99.90
56162;DHT22;42045;52.986;6.014;2023-09-18T11:33:39;21.20;99.90
56162;DHT22;42045;52.986;6.014;2023-09-18T11:36:08;21.20;99.90
56162;DHT22;42045;52.986;6.014;2023-09-18T11:38:57;21.40;99.90
56162;DHT22;42045;52.986;6.014;2023-09-18T11:41:27;21.60;99.90
56162;DHT22;42045;52.986;6.014;2023-09-18T11:46:40;21.80;99.90
56162;DHT22;42045;52.986;6.014;2023-09-18T11:49:07;21.70;99.90
56162;DHT22;42045;52.986;6.014;2023-09-18T11:51:35;21.60;99.90
56162;DHT22;42045;52.986;6.014;2023-09-18T11:54:02;21.50;99.90
56162;DHT22;42045;52.986;6.014;2023-09-18T11:56:39;21.40;99.90
56162;DHT22;42045;52.986;6.014;2023-09-18T11:59:05;21.50;99.90
56162;DHT22;42045;52.986;6.014;2023-09-18T12:01:32;21.50;99.90
56162;DHT22;42045;52.986;6.014;2023-09-18T12:04:07;21.60;99.90
56162;DHT22;42045;52.986;6.014;2023-09-18T12:06:39;21.50;99.90
56162;DHT22;42045;52.986;6.014;2023-09-18T12:09:05;21.60;99.90
56162;DHT22;42045;52.986;6.014;2023-09-18T12:11:32;21.70;99.90
56162;DHT22;42045;52.986;6.014;2023-09-18T12:14:01;21.70;99.90
56162;DHT22;42045;52.986;6.014;2023-09-18T12:16:28;21.60;99.90
56162;DHT22;42045;52.986;6.014;2023-09-18T12:18:53;21.60;99.90
56162;DHT22;42045;52.986;6.014;2023-09-18T12:21:19;21.40;99.90
56162;DHT22;42045;52.986;6.014;2023-09-18T12:23:46;21.40;99.90
56162;DHT22;42045;52.986;6.014;2023-09-18T12:26:12;21.40;99.90
56162;DHT22;42045;52.986;6.014;2023-09-18T12:28:39;21.30;99.90
56162;DHT22;42045;52.986;6.014;2023-09-18T12:31:05;21.30;99.90
56162;DHT22;42045;52.986;6.014;2023-09-18T12:33:35;21.30;99.90
56162;DHT22;42045;52.986;6.014;2023-09-18T12:36:03;21.40;99.90
56162;DHT22;42045;52.986;6.014;2023-09-18T12:38:30;21.40;99.90
56162;DHT22;42045;52.986;6.014;2023-09-18T12:40:56;21.40;99.90
56162;DHT22;42045;52.986;6.014;2023-09-18T12:43:26;21.50;99.90
56162;DHT22;42045;52.986;6.014;2023-09-18T12:45:55;21.70;99.90
56162;DHT22;42045;52.986;6.014;2023-09-18T12:48:21;21.90;99.90
56162;DHT22;42045;52.986;6.014;2023-09-18T12:50:52;22.00;99.90
56162;DHT22;42045;52.986;6.014;2023-09-18T12:53:22;21.90;99.90
56162;DHT22;42045;52.986;6.014;2023-09-18T12:55:48;21.90;99.90
56162;DHT22;42045;52.986;6.014;2023-09-18T12:58:19;22.00;99.90
56162;DHT22;42045;52.986;6.014;2023-09-18T13:00:49;22.00;99.90
56162;DHT22;42045;52.986;6.014;2023-09-18T13:03:15;22.00;99.90
56162;DHT22;42045;52.986;6.014;2023-09-18T13:05:41;22.00;99.90
56162;DHT22;42045;52.986;6.014;2023-09-18T13:08:06;22.00;99.90
56162;DHT22;42045;52.986;6.014;2023-09-18T13:10:45;22.00;99.90
56162;DHT22;42045;52.986;6.014;2023-09-18T13:13:19;22.10;99.90
56162;DHT22;42045;52.986;6.014;2023-09-18T13:15:44;22.10;99.90
56162;DHT22;42045;52.986;6.014;2023-09-18T13:18:15;22.10;99.90
56162;DHT22;42045;52.986;6.014;2023-09-18T13:20:41;22.10;99.90
56162;DHT22;42045;52.986;6.014;2023-09-18T13:23:07;22.20;99.90
56162;DHT22;42045;52.986;6.014;2023-09-18T13:25:35;22.30;99.90
56162;DHT22;42045;52.986;6.014;2023-09-18T13:28:07;22.10;99.90
56162;DHT22;42045;52.986;6.014;2023-09-18T13:30:35;22.00;99.90
56162;DHT22;42045;52.986;6.014;2023-09-18T13:33:08;22.00;99.90
56162;DHT22;42045;52.986;6.014;2023-09-18T13:35:36;21.90;99.90
56162;DHT22;42045;52.986;6.014;2023-09-18T13:38:07;21.90;99.90
56162;DHT22;42045;52.986;6.014;2023-09-18T13:40:42;21.90;99.90
56162;DHT22;42045;52.986;6.014;2023-09-18T13:43:09;22.00;99.90
56162;DHT22;42045;52.986;6.014;2023-09-18T13:45:35;22.00;99.90
56162;DHT22;42045;52.986;6.014;2023-09-18T13:48:02;22.00;99.90
56162;DHT22;42045;52.986;6.014;2023-09-18T13:50:28;21.90;99.90
56162;DHT22;42045;52.986;6.014;2023-09-18T13:52:53;21.90;99.90
56162;DHT22;42045;52.986;6.014;2023-09-18T13:55:19;21.90;99.90
56162;DHT22;42045;52.986;6.014;2023-09-18T13:57:45;21.90;99.90
56162;DHT22;42045;52.986;6.014;2023-09-18T14:00:11;21.80;99.90
56162;DHT22;42045;52.986;6.014;2023-09-18T14:02:38;21.80;99.90
56162;DHT22;42045;52.986;6.014;2023-09-18T14:05:04;21.90;99.90
56162;DHT22;42045;52.986;6.014;2023-09-18T14:07:31;21.80;99.90
56162;DHT22;42045;52.986;6.014;2023-09-18T14:09:56;21.80;99.90
56162;DHT22;42045;52.986;6.014;2023-09-18T14:12:22;21.90;99.90
56162;DHT22;42045;52.986;6.014;2023-09-18T14:14:48;21.90;99.90
56162;DHT22;42045;52.986;6.014;2023-09-18T14:17:13;21.70;99.90
56162;DHT22;42045;52.986;6.014;2023-09-18T14:19:42;21.80;99.90
56162;DHT22;42045;52.986;6.014;2023-09-18T14:22:08;21.80;99.90
56162;DHT22;42045;52.986;6.014;2023-09-18T14:24:33;21.70;99.90
56162;DHT22;42045;52.986;6.014;2023-09-18T14:27:03;21.70;99.90
56162;DHT22;42045;52.986;6.014;2023-09-18T14:29:29;21.60;99.90
56162;DHT22;42045;52.986;6.014;2023-09-18T14:32:01;21.60;99.90
56162;DHT22;42045;52.986;6.014;2023-09-18T14:34:28;21.60;99.90
56162;DHT22;42045;52.986;6.014;2023-09-18T14:36:56;21.50;99.90
56162;DHT22;42045;52.986;6.014;2023-09-18T14:39:21;21.30;99.90
56162;DHT22;42045;52.986;6.014;2023-09-18T14:41:47;21.20;99.90
56162;DHT22;42045;52.986;6.014;2023-09-18T14:44:13;21.30;99.90
56162;DHT22;42045;52.986;6.014;2023-09-18T14:46:39;21.30;99.90
56162;DHT22;42045;52.986;6.014;2023-09-18T14:49:06;21.30;99.90
56162;DHT22;42045;52.986;6.014;2023-09-18T14:51:33;21.40;99.90
56162;DHT22;42045;52.986;6.014;2023-09-18T14:54:00;21.40;99.90
56162;DHT22;42045;52.986;6.014;2023-09-18T14:56:26;21.30;99.90
56162;DHT22;42045;52.986;6.014;2023-09-18T14:58:51;21.30;99.90
56162;DHT22;42045;52.986;6.014;2023-09-18T15:01:21;21.20;99.90
56162;DHT22;42045;52.986;6.014;2023-09-18T15:03:47;21.10;99.90
56162;DHT22;42045;52.986;6.014;2023-09-18T15:06:14;21.00;99.90
56162;DHT22;42045;52.986;6.014;2023-09-18T15:08:40;21.00;99.90
56162;DHT22;42045;52.986;6.014;2023-09-18T15:11:05;20.90;99.90
56162;DHT22;42045;52.986;6.014;2023-09-18T15:13:31;21.00;99.90
56162;DHT22;42045;52.986;6.014;2023-09-18T15:15:58;20.90;99.90
56162;DHT22;42045;52.986;6.014;2023-09-18T15:18:25;20.80;99.90
56162;DHT22;42045;52.986;6.014;2023-09-18T15:20:51;20.80;99.90
56162;DHT22;42045;52.986;6.014;2023-09-18T15:23:23;20.80;99.90
56162;DHT22;42045;52.986;6.014;2023-09-18T15:25:50;20.70;99.90
56162;DHT22;42045;52.986;6.014;2023-09-18T15:28:16;20.60;99.90
56162;DHT22;42045;52.986;6.014;2023-09-18T15:30:45;20.50;99.90
56162;DHT22;42045;52.986;6.014;2023-09-18T15:33:11;20.40;99.90
56162;DHT22;42045;52.986;6.014;2023-09-18T15:35:37;20.40;99.90
56162;DHT22;42045;52.986;6.014;2023-09-18T15:38:03;20.30;99.90
56162;DHT22;42045;52.986;6.014;2023-09-18T15:40:29;20.30;99.90